Venice, Florida
Current Conditions -  °F | °C
As of 4:35 PM on Monday 24 Nov 2014 (Local Time) from KVNC Reporting Station
Clear Clear  
Wind Chill: 77°   Ceiling: Unl
Heat Index: 78°   Visibility: 9mi
Dew Point: 73°   Wind: 13mph
Humidity: 89%   Direction: 180°S
Pressure: 29.96"   Gusts: 16mph
Location:  27.1°N, 82.45°W
Report Text: KVNC 242135Z AUTO 18011G14KT 9SM CLR 25/23 A2996 RMK AO2 TSNO
Loading
Personal Weather Stations






























Interactive Weather Map New forecast layout! Learn more

10-Day Weather Forecast

Advertisements
Track Severe Weather on mobile